createdAt,value
2022-12-07T00:00:44.825Z,21.15
2022-12-07T00:03:11.161Z,20.65
2022-12-07T00:05:37.495Z,19.30
2022-12-07T00:08:03.922Z,20.88
2022-12-07T00:10:30.261Z,18.55
2022-12-07T00:12:57.939Z,22.25
2022-12-07T00:15:24.221Z,21.52
2022-12-07T00:17:50.497Z,24.38
2022-12-07T00:20:16.893Z,22.42
2022-12-07T00:22:43.164Z,24.40
2022-12-07T00:25:09.513Z,22.00
2022-12-07T00:27:35.787Z,20.25
2022-12-07T00:30:04.215Z,22.05
2022-12-07T00:32:30.656Z,19.23
2022-12-07T00:34:56.936Z,19.70
2022-12-07T00:37:23.188Z,21.45
2022-12-07T00:39:49.430Z,19.95
2022-12-07T00:42:15.682Z,22.45
2022-12-07T00:44:41.951Z,20.80
2022-12-07T00:47:09.616Z,23.10
2022-12-07T00:49:35.879Z,17.30
2022-12-07T00:52:02.142Z,27.98
2022-12-07T00:54:28.503Z,21.10
2022-12-07T00:56:54.827Z,25.08
2022-12-07T00:59:21.115Z,21.75
2022-12-07T01:01:47.453Z,24.65
2022-12-07T01:04:15.093Z,21.63
2022-12-07T01:06:41.383Z,22.25
2022-12-07T01:09:07.636Z,20.65
2022-12-07T01:11:33.917Z,20.27
2022-12-07T01:14:00.675Z,24.92
2022-12-07T01:16:28.161Z,21.98
2022-12-07T01:18:55.127Z,20.17
2022-12-07T01:21:23.333Z,19.05
2022-12-07T01:23:49.689Z,19.85
2022-12-07T01:26:18.102Z,22.15
2022-12-07T01:28:44.422Z,25.83
2022-12-07T01:31:12.005Z,20.90
2022-12-07T01:33:38.737Z,19.33
2022-12-07T01:36:05.913Z,20.92
2022-12-07T01:38:33.812Z,20.65
2022-12-07T01:41:00.753Z,26.50
2022-12-07T01:43:27.695Z,22.73
2022-12-07T01:45:54.098Z,22.63
2022-12-07T01:48:21.866Z,25.15
2022-12-07T01:50:49.726Z,22.73
2022-12-07T01:53:16.090Z,20.15
2022-12-07T01:55:46.072Z,22.75
2022-12-07T01:58:12.933Z,23.25
2022-12-07T02:00:39.513Z,22.42
2022-12-07T02:03:07.264Z,23.80
2022-12-07T02:05:34.994Z,21.60
2022-12-07T02:08:02.420Z,21.52
2022-12-07T02:10:30.052Z,20.92
2022-12-07T02:12:59.521Z,21.63
2022-12-07T02:15:27.787Z,22.80
2022-12-07T02:17:59.310Z,23.37
2022-12-07T02:20:29.182Z,25.52
2022-12-07T02:23:05.302Z,24.80
2022-12-07T02:25:37.395Z,21.35
2022-12-07T02:28:07.401Z,23.40
2022-12-07T02:30:36.628Z,23.95
2022-12-07T02:33:05.422Z,25.38
2022-12-07T02:35:34.631Z,23.35
2022-12-07T02:38:04.450Z,22.20
2022-12-07T02:40:34.238Z,22.75
2022-12-07T02:43:03.138Z,23.90
2022-12-07T02:45:30.350Z,26.45
2022-12-07T02:47:59.720Z,24.73
2022-12-07T02:50:26.726Z,22.13
2022-12-07T02:52:52.996Z,24.38
2022-12-07T02:55:21.199Z,23.02
2022-12-07T02:57:54.701Z,21.17
2022-12-07T03:00:21.606Z,24.67
2022-12-07T03:02:52.276Z,22.30
2022-12-07T03:05:28.911Z,27.48
2022-12-07T03:08:00.582Z,23.42
2022-12-07T03:10:29.139Z,23.48
2022-12-07T03:13:00.796Z,27.35
2022-12-07T03:18:25.895Z,25.67
2022-12-07T03:20:56.035Z,27.13
2022-12-07T03:23:24.347Z,20.33
2022-12-07T03:25:58.704Z,26.97
2022-12-07T03:28:30.147Z,21.95
2022-12-07T03:30:57.955Z,25.85
2022-12-07T03:33:26.575Z,22.02
2022-12-07T03:35:58.403Z,24.50
2022-12-07T03:38:27.067Z,19.00
2022-12-07T03:40:55.783Z,23.23
2022-12-07T03:43:22.276Z,27.25
2022-12-07T03:45:54.088Z,23.95
2022-12-07T03:48:23.985Z,23.85
2022-12-07T03:50:53.572Z,24.25
2022-12-07T03:53:23.330Z,21.92
2022-12-07T03:55:50.006Z,22.08
2022-12-07T03:58:17.663Z,25.30
2022-12-07T04:00:44.488Z,22.77
2022-12-07T04:03:10.946Z,24.05
2022-12-07T04:05:37.277Z,23.70
2022-12-07T04:08:03.744Z,26.60
2022-12-07T04:10:31.427Z,22.33
2022-12-07T04:12:57.729Z,21.95
2022-12-07T04:15:23.978Z,24.85
2022-12-07T04:17:50.246Z,22.75
2022-12-07T04:20:16.514Z,25.67
2022-12-07T04:22:42.811Z,24.70
2022-12-07T04:25:09.234Z,24.42
2022-12-07T04:27:36.870Z,23.65
2022-12-07T04:30:03.787Z,26.77
2022-12-07T04:32:30.379Z,23.70
2022-12-07T04:34:56.639Z,23.60
2022-12-07T04:37:22.936Z,26.27
2022-12-07T04:39:49.223Z,24.20
2022-12-07T04:42:15.481Z,24.42
2022-12-07T04:44:43.111Z,24.02
2022-12-07T04:47:09.465Z,22.77
2022-12-07T04:49:35.751Z,25.88
2022-12-07T04:52:02.087Z,21.90
2022-12-07T04:54:28.382Z,22.50
2022-12-07T04:56:54.639Z,22.98
2022-12-07T04:59:20.911Z,23.58
2022-12-07T05:01:48.632Z,24.33
2022-12-07T05:04:15.039Z,24.85
2022-12-07T05:06:41.308Z,21.23
2022-12-07T05:09:07.557Z,23.02
2022-12-07T05:11:33.872Z,22.33
2022-12-07T05:14:00.316Z,22.42
2022-12-07T05:16:26.718Z,22.40
2022-12-07T05:18:54.406Z,24.38
2022-12-07T05:21:20.716Z,22.98
2022-12-07T05:23:46.982Z,19.42
2022-12-07T05:26:13.545Z,20.77
2022-12-07T05:28:39.807Z,25.92
2022-12-07T05:31:06.124Z,24.10
2022-12-07T05:33:32.440Z,25.73
2022-12-07T05:36:00.087Z,24.73
2022-12-07T05:38:26.366Z,24.38
2022-12-07T05:40:52.637Z,25.08
2022-12-07T05:43:18.907Z,22.48
2022-12-07T05:45:45.220Z,22.13
2022-12-07T05:48:11.532Z,23.50
2022-12-07T05:50:37.785Z,26.08
2022-12-07T05:53:05.405Z,24.58
2022-12-07T05:55:31.655Z,27.02
2022-12-07T05:57:58.159Z,23.58
2022-12-07T06:00:24.486Z,25.83
2022-12-07T06:02:50.877Z,28.52
2022-12-07T06:05:17.294Z,26.90
2022-12-07T06:07:43.700Z,21.17
2022-12-07T06:10:11.669Z,25.25
2022-12-07T06:12:38.132Z,24.80
2022-12-07T06:15:04.724Z,25.42
2022-12-07T06:17:31.138Z,21.27
2022-12-07T06:19:58.949Z,27.63
2022-12-07T06:22:25.296Z,27.00
2022-12-07T06:24:51.604Z,24.05
2022-12-07T06:27:19.262Z,24.70
2022-12-07T06:29:45.546Z,23.48
2022-12-07T06:32:11.871Z,25.63
2022-12-07T06:34:38.414Z,23.15
2022-12-07T06:37:04.846Z,25.20
2022-12-07T06:39:31.776Z,25.58
2022-12-07T06:41:58.308Z,28.65
2022-12-07T06:44:26.566Z,29.98
2022-12-07T06:47:06.792Z,27.40
2022-12-07T06:49:38.910Z,28.02
2022-12-07T06:52:05.445Z,27.70
2022-12-07T06:54:31.863Z,27.40
2022-12-07T06:56:58.197Z,27.63
2022-12-07T06:59:25.811Z,21.80
2022-12-07T07:01:52.215Z,26.13
2022-12-07T07:04:18.627Z,27.90
2022-12-07T07:06:44.894Z,24.27
2022-12-07T07:09:11.260Z,24.35
2022-12-07T07:11:37.575Z,23.17
2022-12-07T07:14:03.889Z,21.85
2022-12-07T07:16:31.749Z,27.67
2022-12-07T07:18:58.125Z,24.75
2022-12-07T07:21:24.403Z,26.48
2022-12-07T07:23:50.712Z,25.98
2022-12-07T07:26:22.812Z,24.88
2022-12-07T07:28:49.504Z,28.88
2022-12-07T07:31:15.804Z,21.60
2022-12-07T07:33:43.418Z,20.70
2022-12-07T07:36:09.979Z,22.20
2022-12-07T07:38:36.255Z,23.52
2022-12-07T07:41:02.514Z,18.33
2022-12-07T07:43:28.803Z,17.98
2022-12-07T07:45:55.103Z,22.58
2022-12-07T07:48:21.450Z,23.15
2022-12-07T07:50:49.055Z,25.98
2022-12-07T07:53:15.335Z,22.08
2022-12-07T07:55:41.603Z,25.52
2022-12-07T07:58:07.862Z,22.40
2022-12-07T08:00:34.201Z,22.00
2022-12-07T08:03:00.487Z,18.65
2022-12-07T08:05:26.778Z,18.40
2022-12-07T08:07:54.467Z,21.65
2022-12-07T08:10:20.815Z,19.17
2022-12-07T08:12:47.106Z,18.10
2022-12-07T08:15:13.378Z,18.25
2022-12-07T08:17:39.623Z,21.17
2022-12-07T08:20:08.123Z,18.55
2022-12-07T08:22:34.406Z,16.42
2022-12-07T08:25:02.142Z,19.02
2022-12-07T08:27:28.418Z,15.95
2022-12-07T08:29:54.728Z,18.20
2022-12-07T08:32:21.012Z,20.63
2022-12-07T08:34:47.290Z,22.48
2022-12-07T08:37:13.550Z,21.70
2022-12-07T08:39:39.832Z,23.27
2022-12-07T08:42:07.479Z,20.85
2022-12-07T08:44:33.727Z,19.10
2022-12-07T08:47:01.946Z,19.48
2022-12-07T08:49:31.662Z,18.38
2022-12-07T08:51:57.950Z,19.65
2022-12-07T08:54:24.403Z,16.00
2022-12-07T08:56:56.959Z,17.33
2022-12-07T08:59:27.200Z,18.55
2022-12-07T09:01:53.716Z,19.00
2022-12-07T09:04:20.099Z,15.85
2022-12-07T09:06:46.484Z,18.67
2022-12-07T09:09:14.587Z,17.27
2022-12-07T09:11:40.843Z,19.17
2022-12-07T09:14:07.147Z,17.20
2022-12-07T09:16:34.868Z,14.88
2022-12-07T09:19:01.281Z,14.40
2022-12-07T09:21:27.559Z,17.75
2022-12-07T09:23:53.828Z,18.60
2022-12-07T09:26:20.127Z,14.45
2022-12-07T09:28:46.379Z,14.18
2022-12-07T09:31:27.925Z,14.75
2022-12-07T09:33:56.243Z,13.60
2022-12-07T09:36:22.578Z,15.87
2022-12-07T09:38:48.831Z,12.13
2022-12-07T09:41:15.231Z,15.32
2022-12-07T09:43:41.559Z,13.45
2022-12-07T09:46:10.313Z,17.92
2022-12-07T09:48:38.255Z,12.20
2022-12-07T09:51:18.019Z,16.08
2022-12-07T09:53:49.212Z,15.30
2022-12-07T09:56:16.128Z,12.90
2022-12-07T09:58:42.680Z,15.15
2022-12-07T10:01:12.172Z,17.15
2022-12-07T10:03:39.632Z,12.10
2022-12-07T10:06:07.855Z,14.02
2022-12-07T10:08:34.169Z,16.37
2022-12-07T10:11:02.616Z,16.23
2022-12-07T10:13:35.116Z,16.10
2022-12-07T10:16:06.805Z,15.85
2022-12-07T10:18:34.262Z,14.80
2022-12-07T10:21:02.380Z,13.50
2022-12-07T10:23:30.091Z,12.27
2022-12-07T10:25:56.385Z,13.98
2022-12-07T10:28:22.976Z,16.23
2022-12-07T10:30:54.637Z,11.90
2022-12-07T10:33:31.720Z,14.25
2022-12-07T10:35:58.622Z,15.82
2022-12-07T10:38:25.813Z,12.25
2022-12-07T10:41:03.142Z,13.77
2022-12-07T10:43:29.445Z,11.93
2022-12-07T10:46:14.754Z,12.65
2022-12-07T10:48:45.913Z,14.48
2022-12-07T10:51:15.972Z,12.93
2022-12-07T10:53:57.142Z,11.65
2022-12-07T10:56:36.609Z,12.95
2022-12-07T10:59:22.944Z,10.82
2022-12-07T11:01:51.741Z,10.43
2022-12-07T11:04:30.309Z,9.18
2022-12-07T11:06:59.905Z,8.25
2022-12-07T11:10:07.492Z,7.03
2022-12-07T11:12:34.629Z,8.38
2022-12-07T11:15:04.153Z,10.18
2022-12-07T11:17:35.580Z,9.40
2022-12-07T11:20:06.207Z,8.93
2022-12-07T11:22:37.681Z,11.18
2022-12-07T11:25:15.809Z,10.48
2022-12-07T11:27:48.062Z,10.10
2022-12-07T11:30:17.746Z,9.00
2022-12-07T11:32:54.234Z,10.00
2022-12-07T11:35:25.254Z,10.82
2022-12-07T11:37:55.547Z,11.55
2022-12-07T11:40:25.284Z,11.77
2022-12-07T11:42:56.763Z,10.95
2022-12-07T11:45:25.003Z,14.45
2022-12-07T11:47:54.395Z,11.73
2022-12-07T11:50:26.079Z,13.18
2022-12-07T11:52:53.921Z,11.05
2022-12-07T11:55:23.223Z,16.25
2022-12-07T11:57:52.847Z,11.27
2022-12-07T12:00:21.167Z,14.23
2022-12-07T12:02:51.657Z,11.88
2022-12-07T12:05:19.118Z,15.43
2022-12-07T12:10:38.123Z,12.50
2022-12-07T12:16:13.421Z,13.27
2022-12-07T12:18:55.874Z,16.25
2022-12-07T12:21:26.763Z,13.05
2022-12-07T12:23:56.814Z,14.10
2022-12-07T12:26:24.116Z,11.80
2022-12-07T12:28:52.882Z,11.43
2022-12-07T12:31:33.185Z,12.90
2022-12-07T12:34:01.726Z,9.93
2022-12-07T12:36:43.583Z,9.23
2022-12-07T12:39:11.383Z,12.73
2022-12-07T12:41:57.166Z,9.18
2022-12-07T12:44:43.001Z,11.00
2022-12-07T12:47:24.239Z,14.20
2022-12-07T12:50:09.291Z,15.55
2022-12-07T12:52:50.756Z,12.18
2022-12-07T12:55:18.792Z,12.38
2022-12-07T12:57:45.103Z,11.05
2022-12-07T13:00:17.234Z,12.23
2022-12-07T13:02:48.830Z,14.38
2022-12-07T13:05:20.130Z,14.57
2022-12-07T13:07:58.824Z,11.48
2022-12-07T13:10:31.599Z,10.25
2022-12-07T13:12:58.773Z,12.75
2022-12-07T13:15:36.001Z,13.07
2022-12-07T13:18:04.468Z,14.48
2022-12-07T13:20:41.373Z,9.82
2022-12-07T13:23:10.024Z,11.45
2022-12-07T13:25:39.084Z,15.38
2022-12-07T13:30:31.590Z,11.88
2022-12-07T13:32:58.911Z,11.63
2022-12-07T13:35:28.998Z,12.65
2022-12-07T13:37:55.303Z,12.48
2022-12-07T13:40:24.010Z,13.05
2022-12-07T13:42:57.517Z,10.93
2022-12-07T13:45:25.889Z,10.68
2022-12-07T13:47:53.962Z,12.23
2022-12-07T13:50:24.156Z,11.23
2022-12-07T13:52:50.654Z,13.60
2022-12-07T13:55:17.661Z,12.38
2022-12-07T13:57:46.926Z,14.00
2022-12-07T14:00:14.922Z,12.52
2022-12-07T14:02:55.618Z,10.75
2022-12-07T14:05:24.599Z,11.65
2022-12-07T14:07:54.629Z,10.80
2022-12-07T14:10:24.838Z,13.77
2022-12-07T14:12:52.535Z,10.65
2022-12-07T14:15:21.371Z,14.95
2022-12-07T14:17:51.193Z,15.52
2022-12-07T14:20:30.433Z,10.57
2022-12-07T14:22:56.693Z,11.52
2022-12-07T14:25:23.449Z,11.20
2022-12-07T14:27:55.528Z,11.48
2022-12-07T14:30:22.254Z,10.82
2022-12-07T14:32:50.829Z,10.90
2022-12-07T14:35:18.224Z,11.25
2022-12-07T14:37:45.555Z,12.45
2022-12-07T14:40:14.270Z,8.60
2022-12-07T14:42:40.557Z,12.40
2022-12-07T14:45:13.708Z,14.15
2022-12-07T14:50:26.536Z,11.32
2022-12-07T14:55:41.437Z,12.38
2022-12-07T14:58:12.697Z,14.98
2022-12-07T15:00:40.333Z,12.38
2022-12-07T15:03:06.703Z,11.98
2022-12-07T15:05:33.437Z,9.52
2022-12-07T15:07:59.817Z,10.57
2022-12-07T15:10:27.201Z,10.63
2022-12-07T15:12:53.477Z,9.18
2022-12-07T15:15:19.753Z,9.70
2022-12-07T15:17:47.357Z,10.60
2022-12-07T15:20:14.872Z,9.57
2022-12-07T15:22:41.145Z,9.15
2022-12-07T15:25:07.813Z,9.68
2022-12-07T15:27:34.378Z,8.07
2022-12-07T15:30:00.622Z,6.35
2022-12-07T15:32:26.990Z,5.65
2022-12-07T15:34:54.617Z,5.38
2022-12-07T15:37:20.890Z,4.45
2022-12-07T15:39:47.218Z,6.90
2022-12-07T15:42:13.483Z,6.00
2022-12-07T15:44:39.733Z,7.00
2022-12-07T15:47:06.117Z,5.88
2022-12-07T15:49:32.438Z,9.57
2022-12-07T15:52:00.073Z,7.80
2022-12-07T15:54:27.610Z,7.50
2022-12-07T15:56:54.188Z,8.73
2022-12-07T15:59:20.457Z,11.45
2022-12-07T16:01:46.888Z,6.63
2022-12-07T16:04:13.188Z,7.57
2022-12-07T16:06:39.844Z,6.70
2022-12-07T16:09:07.467Z,4.53
2022-12-07T16:11:34.188Z,5.72
2022-12-07T16:14:00.718Z,3.83
2022-12-07T16:16:27.376Z,7.50
2022-12-07T16:18:53.705Z,4.93
2022-12-07T16:21:24.894Z,5.93
2022-12-07T16:23:51.568Z,5.32
2022-12-07T16:26:20.659Z,5.82
2022-12-07T16:28:49.267Z,4.32
2022-12-07T16:31:16.896Z,4.30
2022-12-07T16:33:43.846Z,6.15
2022-12-07T16:36:11.340Z,6.32
2022-12-07T16:38:38.183Z,6.78
2022-12-07T16:41:04.823Z,5.20
2022-12-07T16:43:32.493Z,4.53
2022-12-07T16:45:58.784Z,5.78
2022-12-07T16:48:25.098Z,6.47
2022-12-07T16:50:51.756Z,6.15
2022-12-07T16:53:18.139Z,6.53
2022-12-07T16:55:45.363Z,7.60
2022-12-07T16:58:11.752Z,8.02
2022-12-07T17:00:39.810Z,8.65
2022-12-07T17:03:06.156Z,8.65
2022-12-07T17:05:32.420Z,7.97
2022-12-07T17:07:58.855Z,9.35
2022-12-07T17:10:25.832Z,9.05
2022-12-07T17:12:52.193Z,6.45
2022-12-07T17:15:18.815Z,9.60
2022-12-07T17:17:47.065Z,5.18
2022-12-07T17:20:13.396Z,9.83
2022-12-07T17:22:39.677Z,17.38
2022-12-07T17:25:06.393Z,10.50
2022-12-07T17:27:33.005Z,9.35
2022-12-07T17:29:59.286Z,8.05
2022-12-07T17:32:25.518Z,10.40
2022-12-07T17:34:53.145Z,10.02
2022-12-07T17:37:19.410Z,10.70
2022-12-07T17:39:45.718Z,10.95
2022-12-07T17:42:11.991Z,12.18
2022-12-07T17:44:38.310Z,13.85
2022-12-07T17:47:04.586Z,13.20
2022-12-07T17:49:30.898Z,16.00
2022-12-07T17:51:58.502Z,13.38
2022-12-07T17:54:24.854Z,11.43
2022-12-07T17:56:51.342Z,10.75
2022-12-07T17:59:17.773Z,12.43
2022-12-07T18:01:45.032Z,10.93
2022-12-07T18:04:11.362Z,13.43
2022-12-07T18:06:38.182Z,12.15
2022-12-07T18:09:06.342Z,13.77
2022-12-07T18:11:33.075Z,15.82
2022-12-07T18:13:59.545Z,13.02
2022-12-07T18:16:26.753Z,15.50
2022-12-07T18:18:53.594Z,14.48
2022-12-07T18:21:20.346Z,13.55
2022-12-07T18:23:47.414Z,15.95
2022-12-07T18:26:15.832Z,17.67
2022-12-07T18:28:42.847Z,16.77
2022-12-07T18:31:16.690Z,20.67
2022-12-07T18:33:43.560Z,18.23
2022-12-07T18:36:09.930Z,14.93
2022-12-07T18:38:36.651Z,16.02
2022-12-07T18:41:03.530Z,16.98
2022-12-07T18:43:31.151Z,15.07
2022-12-07T18:45:57.496Z,15.68
2022-12-07T18:48:23.826Z,14.43
2022-12-07T18:50:58.900Z,17.55
2022-12-07T18:53:25.168Z,22.90
2022-12-07T18:55:51.471Z,19.00
2022-12-07T18:58:17.740Z,17.75
2022-12-07T19:00:45.378Z,19.20
2022-12-07T19:03:11.679Z,16.13
2022-12-07T19:05:37.948Z,18.90
2022-12-07T19:08:04.520Z,17.35
2022-12-07T19:10:30.841Z,17.45
2022-12-07T19:12:57.182Z,14.50
2022-12-07T19:15:23.448Z,18.80
2022-12-07T19:17:51.061Z,14.23
2022-12-07T19:20:17.371Z,15.63
2022-12-07T19:22:43.650Z,23.58
2022-12-07T19:25:09.925Z,18.75
2022-12-07T19:27:36.209Z,19.63
2022-12-07T19:30:02.481Z,19.92
2022-12-07T19:32:31.048Z,23.35
2022-12-07T19:34:58.744Z,17.67
2022-12-07T19:37:25.035Z,21.13
2022-12-07T19:39:51.329Z,18.45
2022-12-07T19:42:17.658Z,18.10
2022-12-07T19:44:44.017Z,15.27
2022-12-07T19:47:10.498Z,17.20
2022-12-07T19:49:36.983Z,21.70
2022-12-07T19:52:05.598Z,19.17
2022-12-07T19:54:32.760Z,19.02
2022-12-07T19:56:59.106Z,16.70
2022-12-07T19:59:26.326Z,16.95
2022-12-07T20:01:52.696Z,17.00
2022-12-07T20:04:19.480Z,17.08
2022-12-07T20:06:46.066Z,17.67
2022-12-07T20:09:13.658Z,15.73
2022-12-07T20:11:39.935Z,17.33
2022-12-07T20:14:06.690Z,15.10
2022-12-07T20:16:33.095Z,14.23
2022-12-07T20:18:59.681Z,16.98
2022-12-07T20:21:26.015Z,20.05
2022-12-07T20:23:52.459Z,16.80
2022-12-07T20:26:20.467Z,16.05
2022-12-07T20:28:46.866Z,15.70
2022-12-07T20:31:13.738Z,19.38
2022-12-07T20:33:40.141Z,17.00
2022-12-07T20:36:06.861Z,17.15
2022-12-07T20:38:33.150Z,17.10
2022-12-07T20:41:00.466Z,15.57
2022-12-07T20:43:28.122Z,15.45
2022-12-07T20:45:54.796Z,24.23
2022-12-07T20:48:21.638Z,22.42
2022-12-07T20:50:48.099Z,14.88
2022-12-07T20:53:14.415Z,19.48
2022-12-07T20:55:40.696Z,16.70
2022-12-07T20:58:07.110Z,14.88
2022-12-07T21:00:35.956Z,15.07
2022-12-07T21:03:02.340Z,15.88
2022-12-07T21:05:28.843Z,22.25
2022-12-07T21:07:55.124Z,19.77
2022-12-07T21:10:22.443Z,18.52
2022-12-07T21:12:52.673Z,17.27
2022-12-07T21:15:21.862Z,18.05
2022-12-07T21:17:49.586Z,18.10
2022-12-07T21:20:15.881Z,17.58
2022-12-07T21:22:42.207Z,18.05
2022-12-07T21:25:09.018Z,15.88
2022-12-07T21:27:35.285Z,19.83
2022-12-07T21:30:01.630Z,16.17
2022-12-07T21:32:27.907Z,19.50
2022-12-07T21:34:55.556Z,17.20
2022-12-07T21:37:21.829Z,18.80
2022-12-07T21:39:48.151Z,20.92
2022-12-07T21:42:14.439Z,16.17
2022-12-07T21:44:41.285Z,18.98
2022-12-07T21:47:07.625Z,24.05
2022-12-07T21:49:33.991Z,19.42
2022-12-07T21:52:01.591Z,21.45
2022-12-07T21:54:27.923Z,23.60
2022-12-07T21:56:54.220Z,18.42
2022-12-07T21:59:20.546Z,18.88
2022-12-07T22:01:47.124Z,17.70
2022-12-07T22:04:15.068Z,16.10
2022-12-07T22:06:41.327Z,19.13
2022-12-07T22:09:09.075Z,19.05
2022-12-07T22:11:35.434Z,15.13
2022-12-07T22:14:06.796Z,15.82
2022-12-07T22:16:36.421Z,15.07
2022-12-07T22:19:02.802Z,16.65
2022-12-07T22:21:29.585Z,17.05
2022-12-07T22:23:56.003Z,15.98
2022-12-07T22:26:24.692Z,15.70
2022-12-07T22:28:51.100Z,15.60
2022-12-07T22:31:18.307Z,20.40
2022-12-07T22:33:44.629Z,16.23
2022-12-07T22:36:11.075Z,19.00
2022-12-07T22:38:37.836Z,12.60
2022-12-07T22:41:08.255Z,15.77
2022-12-07T22:43:35.853Z,20.50
2022-12-07T22:46:02.241Z,16.90
2022-12-07T22:48:28.578Z,16.27
2022-12-07T22:50:55.115Z,16.75
2022-12-07T22:53:21.983Z,18.58
2022-12-07T22:55:48.656Z,17.33
2022-12-07T22:58:14.997Z,18.65
2022-12-07T23:00:53.169Z,16.83
2022-12-07T23:03:19.473Z,16.70
2022-12-07T23:05:46.912Z,14.30
2022-12-07T23:08:13.497Z,14.40
2022-12-07T23:10:41.886Z,14.90
2022-12-07T23:13:09.158Z,15.10
2022-12-07T23:15:36.155Z,21.02
2022-12-07T23:18:03.974Z,17.48
2022-12-07T23:20:30.259Z,15.63
2022-12-07T23:22:56.542Z,16.80
2022-12-07T23:25:22.838Z,17.45
2022-12-07T23:27:52.359Z,16.73
2022-12-07T23:30:18.715Z,14.55
2022-12-07T23:32:45.008Z,18.90
2022-12-07T23:35:12.635Z,17.80
2022-12-07T23:37:38.892Z,15.45
2022-12-07T23:40:06.004Z,15.00
2022-12-07T23:42:32.402Z,21.48
2022-12-07T23:44:58.664Z,15.18
2022-12-07T23:47:24.943Z,16.00
2022-12-07T23:49:51.219Z,18.40
2022-12-07T23:52:18.813Z,15.50
2022-12-07T23:54:45.210Z,15.20
2022-12-07T23:57:11.512Z,14.82
2022-12-07T23:59:38.007Z,15.23
